createdAt,value
2019-03-27T00:01:47.083Z,21.00
2019-03-27T00:04:19.419Z,25.30
2019-03-27T00:06:51.762Z,22.87
2019-03-27T00:09:24.297Z,22.55
2019-03-27T00:11:56.737Z,25.17
2019-03-27T00:14:29.274Z,23.25
2019-03-27T00:17:01.765Z,22.60
2019-03-27T00:19:34.295Z,26.90
2019-03-27T00:22:06.874Z,24.02
2019-03-27T00:24:39.298Z,24.55
2019-03-27T00:27:11.636Z,23.67
2019-03-27T00:29:44.291Z,27.52
2019-03-27T00:32:16.605Z,25.82
2019-03-27T00:34:48.878Z,28.02
2019-03-27T00:39:54.569Z,23.22
2019-03-27T00:42:27.190Z,31.33
2019-03-27T00:44:59.513Z,30.00
2019-03-27T00:47:31.777Z,24.95
2019-03-27T00:50:04.505Z,28.05
2019-03-27T00:55:10.382Z,25.60
2019-03-27T00:57:42.671Z,28.67
2019-03-27T01:00:48.862Z,24.35
2019-03-27T01:03:21.317Z,23.95
2019-03-27T01:08:25.439Z,29.32
2019-03-27T01:13:29.545Z,23.22
2019-03-27T01:16:02.305Z,23.67
2019-03-27T01:18:34.804Z,22.15
2019-03-27T01:21:07.532Z,24.10
2019-03-27T01:23:39.975Z,27.80
2019-03-27T01:26:12.386Z,24.55
2019-03-27T01:28:44.759Z,25.60
2019-03-27T01:31:17.334Z,26.05
2019-03-27T01:33:49.765Z,28.15
2019-03-27T01:36:23.459Z,27.13
2019-03-27T01:41:27.730Z,26.85
2019-03-27T01:44:00.216Z,24.47
2019-03-27T01:46:32.557Z,27.73
2019-03-27T01:49:04.908Z,22.77
2019-03-27T01:51:37.350Z,26.35
2019-03-27T01:54:09.778Z,28.50
2019-03-27T01:56:42.452Z,28.57
2019-03-27T02:01:48.154Z,27.90
2019-03-27T02:04:21.637Z,29.77
2019-03-27T02:06:54.294Z,29.85
2019-03-27T02:09:26.796Z,31.93
2019-03-27T02:11:59.343Z,29.70
2019-03-27T02:14:32.051Z,30.52
2019-03-27T02:17:04.746Z,28.83
2019-03-27T02:19:37.324Z,31.45
2019-03-27T02:22:13.305Z,35.68
2019-03-27T02:24:45.753Z,35.73
2019-03-27T02:27:18.400Z,31.42
2019-03-27T02:29:50.881Z,34.30
2019-03-27T02:32:23.300Z,35.98
2019-03-27T02:34:55.575Z,36.38
2019-03-27T02:37:28.299Z,37.42
2019-03-27T02:40:00.607Z,37.80
2019-03-27T02:42:33.043Z,31.33
2019-03-27T02:45:06.746Z,34.92
2019-03-27T02:47:39.295Z,37.03
2019-03-27T02:50:11.846Z,30.92
2019-03-27T02:52:44.295Z,35.13
2019-03-27T02:55:16.730Z,41.28
2019-03-27T02:57:49.378Z,35.73
2019-03-27T03:00:22.408Z,35.92
2019-03-27T03:02:54.750Z,36.45
2019-03-27T03:05:27.292Z,31.85
2019-03-27T03:07:59.653Z,32.70
2019-03-27T03:10:32.278Z,32.88
2019-03-27T03:13:04.763Z,39.85
2019-03-27T03:15:37.300Z,31.30
2019-03-27T03:18:09.771Z,31.95
2019-03-27T03:20:42.317Z,39.60
2019-03-27T03:23:14.614Z,40.23
2019-03-27T03:25:47.015Z,33.92
2019-03-27T03:28:19.362Z,28.02
2019-03-27T03:30:51.841Z,33.73
2019-03-27T03:33:24.431Z,39.75
2019-03-27T03:35:56.892Z,35.23
2019-03-27T03:38:29.461Z,34.92
2019-03-27T03:41:02.310Z,32.17
2019-03-27T03:43:34.639Z,33.63
2019-03-27T03:46:07.287Z,35.98
2019-03-27T03:48:39.252Z,39.08
2019-03-27T03:51:11.680Z,39.38
2019-03-27T03:53:44.308Z,40.45
2019-03-27T03:56:18.766Z,33.80
2019-03-27T03:58:52.352Z,38.10
2019-03-27T04:01:28.573Z,31.37
2019-03-27T04:04:02.818Z,39.63
2019-03-27T04:06:35.295Z,35.38
2019-03-27T04:09:09.435Z,48.15
2019-03-27T04:14:13.739Z,35.58
2019-03-27T04:16:46.301Z,36.42
2019-03-27T04:19:18.689Z,34.63
2019-03-27T04:21:52.045Z,33.78
2019-03-27T04:24:29.890Z,33.40
2019-03-27T04:27:02.693Z,36.45
2019-03-27T04:29:35.106Z,40.40
2019-03-27T04:32:07.522Z,34.53
2019-03-27T04:34:39.807Z,38.35
2019-03-27T04:37:12.289Z,40.15
2019-03-27T04:39:44.254Z,37.50
2019-03-27T04:42:16.362Z,34.92
2019-03-27T04:44:48.302Z,40.00
2019-03-27T04:47:31.973Z,34.30
2019-03-27T04:49:55.294Z,31.55
2019-03-27T04:52:32.292Z,36.55
2019-03-27T04:55:06.292Z,39.53
2019-03-27T04:57:38.686Z,40.95
2019-03-27T05:00:12.482Z,37.25
2019-03-27T05:05:17.324Z,39.63
2019-03-27T05:07:49.659Z,34.10
2019-03-27T05:10:23.038Z,37.60
2019-03-27T05:12:55.373Z,32.98
2019-03-27T05:15:27.826Z,34.18
2019-03-27T05:18:00.353Z,42.62
2019-03-27T05:20:32.976Z,37.67
2019-03-27T05:23:05.462Z,39.13
2019-03-27T05:28:09.382Z,38.60
2019-03-27T05:30:41.832Z,37.73
2019-03-27T05:33:14.290Z,37.13
2019-03-27T05:35:46.654Z,34.00
2019-03-27T05:38:19.277Z,43.68
2019-03-27T05:40:54.511Z,35.38
2019-03-27T05:43:26.825Z,40.55
2019-03-27T05:45:59.295Z,33.70
2019-03-27T05:48:34.300Z,40.20
2019-03-27T05:51:06.662Z,40.78
2019-03-27T05:53:39.273Z,42.13
2019-03-27T05:56:11.546Z,36.03
2019-03-27T05:58:44.013Z,37.50
2019-03-27T06:01:16.367Z,45.90
2019-03-27T06:03:48.728Z,37.63
2019-03-27T06:06:21.311Z,35.63
2019-03-27T06:08:56.193Z,38.40
2019-03-27T06:11:28.650Z,33.75
2019-03-27T06:14:01.293Z,40.43
2019-03-27T06:16:33.871Z,38.15
2019-03-27T06:19:06.378Z,39.15
2019-03-27T06:21:38.874Z,37.35
2019-03-27T06:24:11.299Z,40.00
2019-03-27T06:26:43.604Z,37.38
2019-03-27T06:29:16.128Z,34.67
2019-03-27T06:31:48.566Z,41.18
2019-03-27T06:34:21.290Z,43.33
2019-03-27T06:36:53.651Z,37.55
2019-03-27T06:39:27.608Z,35.45
2019-03-27T06:42:04.362Z,41.50
2019-03-27T06:44:36.713Z,37.30
2019-03-27T06:47:09.291Z,38.17
2019-03-27T06:49:41.655Z,41.42
2019-03-27T06:52:14.265Z,36.50
2019-03-27T06:54:46.554Z,34.13
2019-03-27T06:57:18.870Z,39.15
2019-03-27T06:59:51.301Z,41.05
2019-03-27T07:02:23.275Z,34.48
2019-03-27T07:04:55.271Z,40.98
2019-03-27T07:07:27.623Z,45.48
2019-03-27T07:10:00.406Z,38.45
2019-03-27T07:12:32.421Z,37.15
2019-03-27T07:15:05.614Z,47.90
2019-03-27T07:17:38.264Z,40.65
2019-03-27T07:20:11.832Z,45.95
2019-03-27T07:22:44.293Z,43.25
2019-03-27T07:25:17.025Z,36.80
2019-03-27T07:27:49.530Z,40.08
2019-03-27T07:30:22.284Z,42.25
2019-03-27T07:32:54.686Z,38.15
2019-03-27T07:35:27.311Z,39.95
2019-03-27T07:38:02.808Z,41.70
2019-03-27T07:40:35.295Z,46.90
2019-03-27T07:43:07.753Z,43.40
2019-03-27T07:45:40.267Z,44.35
2019-03-27T07:48:12.625Z,41.23
2019-03-27T07:50:45.259Z,39.18
2019-03-27T07:53:22.214Z,48.85
2019-03-27T07:55:53.286Z,40.33
2019-03-27T07:58:25.673Z,41.45
2019-03-27T08:00:59.604Z,42.73
2019-03-27T08:03:32.190Z,41.68
2019-03-27T08:06:07.830Z,42.33
2019-03-27T08:08:40.309Z,41.55
2019-03-27T08:11:12.766Z,43.00
2019-03-27T08:13:45.580Z,39.38
2019-03-27T08:16:18.288Z,35.95
2019-03-27T08:18:50.751Z,45.70
2019-03-27T08:21:23.281Z,41.00
2019-03-27T08:23:55.755Z,32.58
2019-03-27T08:26:28.290Z,36.25
2019-03-27T08:29:00.601Z,34.85
2019-03-27T08:31:33.300Z,36.38
2019-03-27T08:34:06.126Z,39.85
2019-03-27T08:36:38.650Z,37.20
2019-03-27T08:39:11.358Z,38.92
2019-03-27T08:41:43.427Z,41.23
2019-03-27T08:46:47.382Z,37.30
2019-03-27T08:49:22.199Z,36.45
2019-03-27T08:54:25.724Z,46.92
2019-03-27T08:56:58.302Z,34.55
2019-03-27T08:59:30.646Z,38.33
2019-03-27T09:02:04.308Z,35.80
2019-03-27T09:04:36.794Z,36.68
2019-03-27T09:07:11.659Z,36.60
2019-03-27T09:09:44.278Z,33.95
2019-03-27T09:12:16.638Z,31.27
2019-03-27T09:14:49.345Z,33.28
2019-03-27T09:19:54.556Z,32.95
2019-03-27T09:22:29.810Z,35.58
2019-03-27T09:25:43.097Z,36.45
2019-03-27T09:28:15.772Z,31.27
2019-03-27T09:30:49.850Z,36.53
2019-03-27T09:33:22.326Z,30.50
2019-03-27T09:35:56.604Z,22.98
2019-03-27T09:38:29.289Z,28.50
2019-03-27T09:41:01.602Z,26.65
2019-03-27T09:43:33.891Z,26.35
2019-03-27T09:46:06.509Z,42.95
2019-03-27T09:51:10.814Z,17.25
2019-03-27T09:53:43.306Z,12.15
2019-03-27T09:56:19.475Z,13.43
2019-03-27T09:58:50.293Z,12.65
2019-03-27T10:01:22.613Z,13.18
2019-03-27T10:03:54.991Z,14.78
2019-03-27T10:06:27.302Z,11.15
2019-03-27T10:08:59.777Z,13.48
2019-03-27T10:11:32.311Z,9.98
2019-03-27T10:14:04.753Z,9.83
2019-03-27T10:16:40.289Z,11.63
2019-03-27T10:19:13.021Z,14.03
2019-03-27T10:21:46.882Z,10.03
2019-03-27T10:24:19.360Z,7.12
2019-03-27T10:26:51.785Z,7.67
2019-03-27T10:29:24.294Z,6.10
2019-03-27T10:31:56.993Z,7.35
2019-03-27T10:34:29.493Z,7.95
2019-03-27T10:39:33.743Z,9.73
2019-03-27T10:42:06.303Z,6.72
2019-03-27T10:44:40.414Z,9.43
2019-03-27T10:47:12.784Z,9.20
2019-03-27T10:49:45.321Z,9.90
2019-03-27T10:52:17.682Z,7.53
2019-03-27T10:54:50.322Z,9.58
2019-03-27T10:57:22.891Z,6.58
2019-03-27T10:59:55.436Z,8.50
2019-03-27T11:04:59.647Z,7.08
2019-03-27T11:07:32.288Z,12.73
2019-03-27T11:10:08.406Z,18.87
2019-03-27T11:12:41.226Z,8.13
2019-03-27T11:15:14.692Z,5.08
2019-03-27T11:17:47.313Z,6.33
2019-03-27T11:20:30.353Z,7.58
2019-03-27T11:22:54.512Z,9.08
2019-03-27T11:25:27.328Z,6.37
2019-03-27T11:27:59.847Z,8.08
2019-03-27T11:30:39.826Z,9.65
2019-03-27T11:33:12.451Z,9.28
2019-03-27T11:38:16.554Z,6.47
2019-03-27T11:40:48.911Z,6.03
2019-03-27T11:43:28.130Z,5.20
2019-03-27T11:46:00.705Z,6.30
2019-03-27T11:48:33.299Z,5.62
2019-03-27T11:53:38.869Z,5.92
2019-03-27T11:56:11.521Z,7.97
2019-03-27T11:58:44.054Z,6.78
2019-03-27T12:01:16.641Z,8.23
2019-03-27T12:03:49.307Z,5.65
2019-03-27T12:06:21.888Z,6.20
2019-03-27T12:08:54.431Z,5.03
2019-03-27T12:13:58.459Z,7.90
2019-03-27T12:19:02.515Z,7.15
2019-03-27T12:21:35.061Z,4.85
2019-03-27T12:24:07.668Z,5.25
2019-03-27T12:26:41.905Z,5.62
2019-03-27T12:29:18.146Z,7.17
2019-03-27T12:31:50.368Z,5.85
2019-03-27T12:34:22.768Z,6.92
2019-03-27T12:36:55.752Z,7.78
2019-03-27T12:39:28.657Z,7.28
2019-03-27T12:42:01.432Z,10.08
2019-03-27T12:44:33.987Z,9.00
2019-03-27T12:47:08.428Z,10.45
2019-03-27T12:49:41.482Z,10.48
2019-03-27T12:52:17.315Z,8.80
2019-03-27T12:57:21.828Z,9.23
2019-03-27T12:59:54.717Z,11.43
2019-03-27T13:02:27.524Z,10.05
2019-03-27T13:05:02.719Z,9.25
2019-03-27T13:07:49.081Z,10.60
2019-03-27T13:10:10.579Z,9.78
2019-03-27T13:12:43.357Z,7.95
2019-03-27T13:15:16.071Z,6.50
2019-03-27T13:17:48.594Z,8.63
2019-03-27T13:20:21.500Z,6.30
2019-03-27T13:22:54.308Z,7.80
2019-03-27T13:25:27.003Z,8.25
2019-03-27T13:27:59.542Z,7.42
2019-03-27T13:30:32.406Z,6.15
2019-03-27T13:35:36.760Z,9.63
2019-03-27T13:38:10.391Z,7.30
2019-03-27T13:43:14.666Z,7.45
2019-03-27T13:45:47.308Z,6.87
2019-03-27T13:48:22.999Z,8.45
2019-03-27T13:50:57.332Z,8.78
2019-03-27T13:53:31.439Z,7.25
2019-03-27T13:56:04.170Z,5.87
2019-03-27T13:58:36.633Z,7.72
2019-03-27T14:01:12.816Z,5.85
2019-03-27T14:03:43.489Z,5.97
2019-03-27T14:06:16.334Z,6.33
2019-03-27T14:08:50.065Z,6.80
2019-03-27T14:11:23.184Z,7.92
2019-03-27T14:13:55.902Z,5.97
2019-03-27T14:16:31.442Z,7.55
2019-03-27T14:24:07.995Z,7.55
2019-03-27T14:26:45.510Z,8.23
2019-03-27T14:29:16.411Z,9.13
2019-03-27T14:31:49.278Z,8.60
2019-03-27T14:34:21.716Z,7.97
2019-03-27T14:36:56.288Z,5.35
2019-03-27T14:39:29.296Z,11.05
2019-03-27T14:42:02.880Z,6.90
2019-03-27T14:44:37.493Z,6.53
2019-03-27T14:47:10.414Z,6.30
2019-03-27T14:52:15.286Z,6.92
2019-03-27T14:54:47.850Z,6.12
2019-03-27T14:57:23.420Z,6.03
2019-03-27T14:59:56.305Z,7.08
2019-03-27T15:02:30.718Z,4.78
2019-03-27T15:05:03.551Z,7.35
2019-03-27T15:07:36.354Z,6.40
2019-03-27T15:10:12.786Z,8.20
2019-03-27T15:12:47.935Z,7.45
2019-03-27T15:15:20.551Z,6.25
2019-03-27T15:17:53.366Z,5.28
2019-03-27T15:20:26.316Z,6.87
2019-03-27T15:25:33.959Z,7.30
2019-03-27T15:28:08.712Z,6.10
2019-03-27T15:30:43.580Z,5.92
2019-03-27T15:33:22.327Z,9.35
2019-03-27T15:36:06.015Z,5.85
2019-03-27T15:38:39.158Z,6.65
2019-03-27T15:41:13.499Z,7.45
2019-03-27T15:43:46.385Z,9.70
2019-03-27T15:51:22.640Z,6.20
2019-03-27T15:53:55.357Z,6.22
2019-03-27T16:01:45.761Z,5.37
2019-03-27T16:04:20.255Z,4.53
2019-03-27T16:06:53.480Z,6.85
2019-03-27T16:09:30.369Z,7.87
2019-03-27T16:14:38.581Z,8.03
2019-03-27T16:17:13.743Z,9.65
2019-03-27T16:22:27.532Z,10.82
2019-03-27T16:27:39.306Z,7.70
2019-03-27T16:30:17.021Z,6.15
2019-03-27T16:32:48.328Z,8.48
2019-03-27T16:35:20.504Z,6.42
2019-03-27T16:40:49.390Z,9.35
2019-03-27T16:45:54.078Z,6.67
2019-03-27T16:48:26.718Z,9.65
2019-03-27T16:51:02.550Z,7.60
2019-03-27T16:53:35.404Z,10.05
2019-03-27T16:58:44.460Z,10.85
2019-03-27T17:01:19.790Z,14.60
2019-03-27T17:03:57.555Z,12.65
2019-03-27T17:06:35.829Z,10.78
2019-03-27T17:09:10.313Z,10.78
2019-03-27T17:11:43.345Z,9.75
2019-03-27T17:16:52.773Z,8.73
2019-03-27T17:19:27.930Z,6.72
2019-03-27T17:22:01.531Z,11.70
2019-03-27T17:24:38.798Z,4.45
2019-03-27T17:27:11.688Z,7.80
2019-03-27T17:29:47.257Z,7.58
2019-03-27T17:32:20.671Z,8.68
2019-03-27T17:34:56.616Z,6.55
2019-03-27T17:37:33.870Z,6.87
2019-03-27T17:40:10.321Z,6.25
2019-03-27T17:42:50.523Z,11.43
2019-03-27T17:45:26.364Z,6.90
2019-03-27T17:50:38.757Z,9.70
2019-03-27T17:53:14.242Z,7.55
2019-03-27T17:56:22.421Z,7.40
2019-03-27T18:01:33.370Z,9.90
2019-03-27T18:06:42.320Z,7.92
2019-03-27T18:09:16.394Z,7.65
2019-03-27T18:11:49.135Z,5.87
2019-03-27T18:14:23.645Z,9.78
2019-03-27T18:16:56.364Z,6.55
2019-03-27T18:19:33.726Z,7.25
2019-03-27T18:22:07.962Z,6.22
2019-03-27T18:24:43.512Z,8.43
2019-03-27T18:27:16.372Z,9.50
2019-03-27T18:32:21.428Z,7.83
2019-03-27T18:34:55.334Z,8.03
2019-03-27T18:37:30.034Z,8.30
2019-03-27T18:40:06.364Z,6.95
2019-03-27T18:42:41.410Z,8.40
2019-03-27T18:45:16.969Z,12.23
2019-03-27T18:47:51.444Z,6.83
2019-03-27T18:50:25.432Z,10.30
2019-03-27T18:52:59.472Z,9.60
2019-03-27T18:57:58.995Z,8.75
2019-03-27T19:00:21.183Z,6.10
2019-03-27T19:02:55.430Z,9.15
2019-03-27T19:05:35.649Z,11.85
2019-03-27T19:08:11.480Z,8.50
2019-03-27T19:10:44.303Z,10.05
2019-03-27T19:13:17.359Z,6.92
2019-03-27T19:15:50.349Z,9.15
2019-03-27T19:18:25.315Z,8.23
2019-03-27T19:23:30.360Z,8.78
2019-03-27T19:26:03.168Z,9.20
2019-03-27T19:28:35.792Z,8.05
2019-03-27T19:31:08.420Z,7.45
2019-03-27T19:36:13.104Z,8.68
2019-03-27T19:38:45.461Z,11.80
2019-03-27T19:41:19.273Z,9.28
2019-03-27T19:43:51.844Z,9.50
2019-03-27T19:46:24.512Z,12.90
2019-03-27T19:51:29.760Z,10.58
2019-03-27T19:54:02.379Z,7.00
2019-03-27T19:56:34.846Z,8.08
2019-03-27T19:59:10.417Z,8.95
2019-03-27T20:01:43.087Z,8.80
2019-03-27T20:04:16.389Z,10.15
2019-03-27T20:07:19.359Z,11.85
2019-03-27T20:10:33.699Z,8.28
2019-03-27T20:13:23.410Z,11.15
2019-03-27T20:16:22.562Z,8.25
2019-03-27T20:19:17.023Z,16.10
2019-03-27T20:21:55.394Z,10.40
2019-03-27T20:25:09.799Z,10.25
2019-03-27T20:30:17.305Z,10.05
2019-03-27T20:32:50.131Z,12.28
2019-03-27T20:35:23.127Z,12.15
2019-03-27T20:37:56.011Z,11.95
2019-03-27T20:40:28.487Z,8.00
2019-03-27T20:43:03.373Z,13.72
2019-03-27T20:45:38.463Z,10.03
2019-03-27T20:48:12.471Z,11.00
2019-03-27T20:51:01.439Z,10.98
2019-03-27T20:53:48.068Z,11.10
2019-03-27T20:56:21.317Z,10.70
2019-03-27T21:01:26.308Z,12.58
2019-03-27T21:04:00.927Z,13.75
2019-03-27T21:06:33.822Z,12.63
2019-03-27T21:09:08.052Z,10.95
2019-03-27T21:12:00.804Z,10.85
2019-03-27T21:14:34.276Z,8.83
2019-03-27T21:17:08.819Z,10.53
2019-03-27T21:19:42.744Z,13.93
2019-03-27T21:22:17.438Z,15.80
2019-03-27T21:27:25.402Z,10.03
2019-03-27T21:30:36.961Z,10.50
2019-03-27T22:11:52.013Z,11.65
2019-03-27T22:14:27.332Z,12.70
2019-03-27T22:17:06.294Z,14.07
2019-03-27T22:19:43.798Z,14.85
2019-03-27T22:22:26.232Z,8.58
2019-03-27T22:25:05.365Z,10.53
2019-03-27T22:27:48.380Z,13.20
2019-03-27T22:33:53.670Z,15.85
2019-03-27T22:44:01.885Z,12.40
2019-03-27T22:46:49.733Z,10.23
2019-03-27T22:49:31.541Z,16.67
2019-03-27T22:55:27.321Z,16.95
2019-03-27T23:00:52.547Z,26.37
2019-03-27T23:03:25.425Z,13.03
2019-03-27T23:05:57.808Z,13.00
2019-03-27T23:08:30.328Z,12.13
2019-03-27T23:11:02.900Z,10.95
2019-03-27T23:13:35.312Z,10.18
2019-03-27T23:16:10.260Z,11.03
2019-03-27T23:18:42.250Z,16.73
2019-03-27T23:21:14.595Z,14.10
2019-03-27T23:23:47.322Z,9.80
2019-03-27T23:26:19.637Z,13.90
2019-03-27T23:28:52.133Z,13.05
2019-03-27T23:31:24.444Z,15.03
2019-03-27T23:33:56.756Z,12.50
2019-03-27T23:36:29.349Z,14.00
2019-03-27T23:39:01.304Z,9.50
2019-03-27T23:41:35.028Z,12.18
2019-03-27T23:44:07.494Z,10.47
2019-03-27T23:46:39.870Z,16.40
2019-03-27T23:49:12.342Z,14.93
2019-03-27T23:51:44.816Z,15.87
2019-03-27T23:54:17.306Z,20.03
2019-03-27T23:56:49.620Z,14.43
2019-03-27T23:59:22.056Z,17.53
